createdAt,value
2022-10-21T00:00:31.588Z,7.20
2022-10-21T00:01:32.532Z,3.80
2022-10-21T00:02:33.374Z,2.90
2022-10-21T00:03:34.406Z,2.50
2022-10-21T00:04:35.239Z,3.00
2022-10-21T00:05:36.126Z,2.60
2022-10-21T00:06:37.017Z,1.70
2022-10-21T00:07:37.906Z,2.40
2022-10-21T00:08:38.860Z,1.80
2022-10-21T00:09:39.697Z,3.10
2022-10-21T00:10:40.588Z,4.30
2022-10-21T00:11:41.472Z,2.70
2022-10-21T00:12:42.376Z,1.80
2022-10-21T00:13:43.241Z,1.90
2022-10-21T00:14:44.124Z,2.90
2022-10-21T00:15:44.997Z,2.00
2022-10-21T00:16:45.889Z,1.50
2022-10-21T00:17:46.770Z,1.70
2022-10-21T00:18:47.657Z,1.50
2022-10-21T00:19:48.532Z,1.50
2022-10-21T00:20:49.412Z,2.00
2022-10-21T00:21:50.305Z,2.20
2022-10-21T00:22:51.191Z,2.20
2022-10-21T00:23:52.075Z,1.60
2022-10-21T00:24:52.957Z,1.50
2022-10-21T00:25:53.865Z,1.30
2022-10-21T00:26:54.738Z,1.90
2022-10-21T00:27:55.640Z,2.00
2022-10-21T00:28:56.508Z,2.60
2022-10-21T00:29:57.387Z,5.30
2022-10-21T00:30:58.552Z,4.60
2022-10-21T00:31:58.948Z,2.70
2022-10-21T00:33:02.949Z,2.70
2022-10-21T00:34:00.764Z,4.40
2022-10-21T00:35:01.653Z,3.20
2022-10-21T00:36:02.557Z,2.30
2022-10-21T00:37:03.416Z,1.80
2022-10-21T00:38:04.304Z,2.00
2022-10-21T00:39:05.201Z,2.20
2022-10-21T00:40:06.079Z,1.60
2022-10-21T00:41:06.962Z,1.50
2022-10-21T00:42:07.848Z,1.60
2022-10-21T00:43:08.751Z,1.40
2022-10-21T00:44:09.618Z,1.20
2022-10-21T00:45:10.502Z,1.30
2022-10-21T00:46:11.397Z,1.40
2022-10-21T00:47:12.276Z,1.40
2022-10-21T00:48:13.157Z,1.40
2022-10-21T00:49:14.047Z,1.50
2022-10-21T00:50:14.928Z,1.70
2022-10-21T00:51:15.816Z,1.50
2022-10-21T00:52:16.692Z,1.90
2022-10-21T00:53:17.580Z,1.50
2022-10-21T00:54:18.468Z,1.50
2022-10-21T00:55:19.352Z,1.20
2022-10-21T00:56:20.242Z,1.30
2022-10-21T00:57:21.126Z,1.30
2022-10-21T00:58:22.027Z,1.40
2022-10-21T00:59:22.900Z,1.40
2022-10-21T01:00:23.779Z,1.40
2022-10-21T01:01:24.698Z,1.40
2022-10-21T01:02:25.549Z,1.40
2022-10-21T01:03:26.429Z,1.40
2022-10-21T01:04:27.318Z,1.50
2022-10-21T01:05:28.198Z,1.40
2022-10-21T01:06:29.106Z,1.50
2022-10-21T01:07:29.996Z,1.20
2022-10-21T01:08:30.929Z,1.50
2022-10-21T01:09:31.798Z,1.80
2022-10-21T01:10:32.674Z,1.80
2022-10-21T01:11:33.586Z,2.40
2022-10-21T01:12:34.480Z,2.00
2022-10-21T01:13:35.397Z,1.90
2022-10-21T01:14:36.267Z,2.30
2022-10-21T01:15:37.182Z,2.50
2022-10-21T01:16:38.050Z,2.60
2022-10-21T01:17:44.497Z,2.70
2022-10-21T01:18:40.727Z,2.50
2022-10-21T01:19:40.599Z,1.50
2022-10-21T01:20:41.471Z,1.60
2022-10-21T01:21:42.363Z,1.20
2022-10-21T01:22:43.236Z,1.30
2022-10-21T01:23:44.124Z,1.30
2022-10-21T01:24:45.014Z,1.30
2022-10-21T01:25:45.891Z,1.20
2022-10-21T01:26:46.774Z,1.70
2022-10-21T01:27:47.655Z,2.70
2022-10-21T01:28:48.548Z,2.30
2022-10-21T01:29:49.414Z,2.60
2022-10-21T01:30:50.294Z,2.90
2022-10-21T01:31:51.185Z,2.90
2022-10-21T01:32:52.078Z,2.10
2022-10-21T01:33:52.948Z,1.70
2022-10-21T01:34:53.821Z,1.60
2022-10-21T01:35:54.704Z,1.70
2022-10-21T01:36:55.586Z,2.00
2022-10-21T01:37:56.466Z,14.30
2022-10-21T01:38:57.350Z,8.20
2022-10-21T01:39:58.223Z,5.00
2022-10-21T01:40:59.098Z,4.00
2022-10-21T01:42:00.027Z,3.10
2022-10-21T01:43:00.905Z,2.40
2022-10-21T01:44:01.805Z,1.50
2022-10-21T01:45:02.678Z,1.40
2022-10-21T01:46:03.569Z,1.50
2022-10-21T01:47:04.465Z,1.40
2022-10-21T01:48:05.363Z,2.30
2022-10-21T01:49:06.262Z,4.50
2022-10-21T01:50:07.166Z,4.70
2022-10-21T01:51:08.045Z,3.50
2022-10-21T01:52:08.928Z,4.50
2022-10-21T01:53:09.808Z,9.10
2022-10-21T01:54:10.689Z,7.40
2022-10-21T01:55:11.565Z,6.90
2022-10-21T01:56:12.456Z,6.30
2022-10-21T01:57:13.336Z,6.10
2022-10-21T01:58:14.230Z,5.30
2022-10-21T01:59:15.124Z,3.20
2022-10-21T02:00:16.099Z,3.10
2022-10-21T02:01:17.062Z,2.70
2022-10-21T02:02:17.923Z,2.80
2022-10-21T02:03:18.812Z,1.80
2022-10-21T02:04:19.686Z,1.90
2022-10-21T02:05:20.565Z,2.70
2022-10-21T02:06:21.456Z,3.90
2022-10-21T02:07:22.347Z,3.20
2022-10-21T02:08:23.228Z,1.80
2022-10-21T02:09:24.143Z,1.70
2022-10-21T02:10:24.982Z,1.70
2022-10-21T02:11:25.870Z,1.70
2022-10-21T02:12:26.760Z,1.40
2022-10-21T02:13:27.636Z,1.60
2022-10-21T02:14:28.538Z,1.50
2022-10-21T02:15:29.407Z,1.80
2022-10-21T02:16:30.294Z,4.00
2022-10-21T02:17:31.178Z,3.60
2022-10-21T02:18:32.060Z,4.00
2022-10-21T02:19:32.950Z,2.70
2022-10-21T02:20:33.843Z,3.20
2022-10-21T02:21:34.721Z,3.80
2022-10-21T02:22:35.948Z,3.40
2022-10-21T02:23:36.414Z,4.40
2022-10-21T02:24:37.295Z,2.80
2022-10-21T02:25:38.187Z,2.60
2022-10-21T02:26:39.069Z,2.20
2022-10-21T02:27:39.961Z,1.90
2022-10-21T02:29:41.656Z,1.80
2022-10-21T02:30:42.536Z,1.80
2022-10-21T02:31:43.413Z,1.30
2022-10-21T02:32:44.296Z,1.40
2022-10-21T02:33:45.175Z,1.20
2022-10-21T02:34:46.056Z,1.30
2022-10-21T02:35:46.954Z,1.30
2022-10-21T02:36:47.830Z,1.30
2022-10-21T02:37:48.708Z,1.20
2022-10-21T02:38:49.587Z,1.50
2022-10-21T02:39:50.460Z,1.60
2022-10-21T02:40:51.353Z,1.40
2022-10-21T02:41:52.229Z,1.70
2022-10-21T02:42:53.101Z,1.80
2022-10-21T02:43:53.980Z,1.70
2022-10-21T02:44:54.884Z,1.70
2022-10-21T02:45:55.757Z,1.60
2022-10-21T02:46:56.634Z,1.40
2022-10-21T02:47:57.511Z,1.60
2022-10-21T02:48:58.384Z,1.30
2022-10-21T02:49:59.266Z,1.40
2022-10-21T02:51:00.149Z,1.50
2022-10-21T02:52:01.031Z,1.30
2022-10-21T02:53:01.911Z,1.50
2022-10-21T02:54:02.786Z,1.40
2022-10-21T02:55:03.660Z,1.30
2022-10-21T02:56:04.549Z,1.40
2022-10-21T02:57:05.424Z,1.70
2022-10-21T02:58:06.304Z,1.50
2022-10-21T02:59:07.179Z,1.40
2022-10-21T03:00:08.105Z,1.50
2022-10-21T03:01:08.991Z,2.20
2022-10-21T03:02:09.887Z,2.20
2022-10-21T03:03:10.764Z,1.50
2022-10-21T03:04:11.657Z,1.60
2022-10-21T03:05:12.540Z,1.30
2022-10-21T03:06:13.442Z,1.30
2022-10-21T03:07:14.318Z,1.30
2022-10-21T03:08:15.201Z,2.70
2022-10-21T03:09:16.073Z,2.60
2022-10-21T03:10:16.969Z,2.50
2022-10-21T03:11:17.854Z,2.30
2022-10-21T03:12:18.738Z,2.70
2022-10-21T03:13:19.613Z,2.90
2022-10-21T03:14:20.501Z,3.90
2022-10-21T03:15:21.402Z,8.10
2022-10-21T03:16:22.274Z,6.00
2022-10-21T03:17:25.243Z,2.60
2022-10-21T03:18:23.842Z,2.90
2022-10-21T03:19:24.726Z,2.50
2022-10-21T03:20:25.620Z,2.20
2022-10-21T03:21:26.506Z,1.80
2022-10-21T03:22:27.396Z,1.70
2022-10-21T03:23:28.268Z,2.70
2022-10-21T03:24:29.270Z,3.10
2022-10-21T03:25:35.075Z,1.90
2022-10-21T03:26:31.871Z,2.20
2022-10-21T03:28:32.569Z,1.40
2022-10-21T03:29:33.451Z,1.40
2022-10-21T03:30:34.351Z,1.60
2022-10-21T03:31:35.221Z,2.20
2022-10-21T03:32:36.295Z,2.60
2022-10-21T03:33:36.732Z,2.30
2022-10-21T03:34:37.607Z,3.20
2022-10-21T03:35:38.496Z,2.20
2022-10-21T03:36:39.387Z,2.10
2022-10-21T03:37:40.288Z,2.40
2022-10-21T03:38:41.159Z,2.30
2022-10-21T03:39:42.039Z,1.70
2022-10-21T03:40:42.928Z,1.60
2022-10-21T03:41:43.813Z,2.10
2022-10-21T03:42:44.694Z,1.40
2022-10-21T03:43:45.575Z,1.50
2022-10-21T03:44:46.455Z,2.30
2022-10-21T03:45:47.358Z,2.00
2022-10-21T03:46:48.230Z,1.10
2022-10-21T03:47:49.102Z,1.40
2022-10-21T03:48:50.005Z,1.90
2022-10-21T03:49:50.880Z,1.90
2022-10-21T03:50:51.787Z,1.80
2022-10-21T03:51:52.678Z,1.90
2022-10-21T03:52:53.565Z,1.50
2022-10-21T03:53:54.459Z,1.50
2022-10-21T03:54:55.341Z,1.40
2022-10-21T03:55:56.859Z,1.40
2022-10-21T03:56:57.236Z,1.40
2022-10-21T03:57:58.131Z,1.80
2022-10-21T03:58:59.027Z,1.80
2022-10-21T03:59:59.946Z,2.00
2022-10-21T04:01:00.854Z,1.90
2022-10-21T04:02:01.782Z,2.50
2022-10-21T04:03:02.662Z,1.50
2022-10-21T04:04:03.554Z,2.50
2022-10-21T04:05:04.447Z,1.80
2022-10-21T04:06:05.364Z,1.70
2022-10-21T04:07:06.263Z,1.50
2022-10-21T04:08:07.154Z,1.30
2022-10-21T04:09:08.206Z,2.20
2022-10-21T04:10:08.564Z,1.90
2022-10-21T04:11:09.453Z,1.80
2022-10-21T04:12:11.065Z,1.80
2022-10-21T04:13:11.187Z,1.80
2022-10-21T04:14:15.230Z,1.90
2022-10-21T04:15:12.962Z,1.40
2022-10-21T04:16:13.868Z,1.70
2022-10-21T04:17:14.724Z,2.10
2022-10-21T04:18:15.598Z,2.00
2022-10-21T04:19:16.481Z,1.90
2022-10-21T04:20:17.356Z,1.70
2022-10-21T04:21:18.285Z,1.50
2022-10-21T04:22:19.132Z,1.70
2022-10-21T04:23:20.014Z,1.60
2022-10-21T04:24:20.893Z,1.40
2022-10-21T04:25:21.799Z,1.50
2022-10-21T04:26:22.703Z,1.90
2022-10-21T04:27:23.611Z,1.80
2022-10-21T04:28:24.506Z,1.60
2022-10-21T04:29:25.406Z,1.70
2022-10-21T04:30:26.309Z,1.60
2022-10-21T04:31:31.328Z,1.90
2022-10-21T04:32:28.975Z,2.10
2022-10-21T04:33:28.868Z,1.70
2022-10-21T04:34:29.743Z,1.90
2022-10-21T04:35:30.624Z,2.00
2022-10-21T04:36:31.514Z,2.60
2022-10-21T04:37:32.397Z,2.10
2022-10-21T04:38:33.282Z,1.60
2022-10-21T04:39:34.171Z,2.40
2022-10-21T04:40:35.046Z,3.50
2022-10-21T04:41:35.936Z,3.50
2022-10-21T04:42:36.819Z,2.50
2022-10-21T04:43:37.702Z,2.30
2022-10-21T04:44:38.584Z,2.50
2022-10-21T04:45:39.479Z,2.10
2022-10-21T04:46:40.380Z,2.30
2022-10-21T04:47:41.477Z,2.10
2022-10-21T04:48:41.876Z,2.00
2022-10-21T04:49:42.758Z,2.10
2022-10-21T04:50:43.636Z,2.40
2022-10-21T04:51:44.550Z,1.80
2022-10-21T04:52:45.434Z,1.70
2022-10-21T04:53:46.323Z,1.50
2022-10-21T04:54:47.188Z,1.60
2022-10-21T04:55:48.070Z,1.80
2022-10-21T04:56:48.952Z,1.80
2022-10-21T04:57:49.841Z,1.70
2022-10-21T04:58:50.717Z,1.60
2022-10-21T04:59:51.600Z,1.60
2022-10-21T05:00:52.566Z,1.50
2022-10-21T05:01:53.461Z,1.60
2022-10-21T05:02:54.294Z,1.40
2022-10-21T05:03:55.178Z,1.60
2022-10-21T05:04:56.061Z,1.40
2022-10-21T05:05:56.932Z,1.80
2022-10-21T05:06:57.826Z,1.50
2022-10-21T05:07:58.715Z,1.60
2022-10-21T05:08:59.659Z,1.40
2022-10-21T05:10:00.522Z,1.70
2022-10-21T05:11:01.408Z,1.60
2022-10-21T05:12:02.295Z,2.10
2022-10-21T05:13:03.198Z,1.80
2022-10-21T05:14:04.063Z,1.60
2022-10-21T05:15:04.955Z,1.50
2022-10-21T05:16:05.826Z,1.30
2022-10-21T05:17:06.723Z,1.50
2022-10-21T05:18:07.583Z,1.60
2022-10-21T05:19:08.464Z,1.40
2022-10-21T05:20:09.340Z,1.50
2022-10-21T05:21:10.239Z,1.30
2022-10-21T05:22:11.121Z,1.50
2022-10-21T05:23:12.000Z,1.60
2022-10-21T05:24:12.878Z,1.60
2022-10-21T05:25:13.761Z,1.80
2022-10-21T05:26:14.655Z,2.10
2022-10-21T05:27:15.488Z,1.70
2022-10-21T05:28:16.378Z,2.00
2022-10-21T05:29:17.270Z,2.00
2022-10-21T05:30:18.172Z,2.10
2022-10-21T05:31:19.075Z,1.80
2022-10-21T05:32:19.938Z,2.00
2022-10-21T05:33:20.747Z,1.80
2022-10-21T05:34:21.570Z,1.90
2022-10-21T05:35:22.460Z,1.70
2022-10-21T05:36:24.177Z,1.60
2022-10-21T05:37:24.182Z,2.00
2022-10-21T05:38:25.074Z,1.90
2022-10-21T05:39:25.894Z,1.70
2022-10-21T05:40:26.723Z,1.80
2022-10-21T05:41:27.583Z,1.60
2022-10-21T05:42:28.403Z,1.40
2022-10-21T05:43:29.233Z,1.60
2022-10-21T05:44:30.082Z,1.40
2022-10-21T05:45:30.905Z,1.60
2022-10-21T05:46:31.741Z,2.60
2022-10-21T05:47:32.581Z,1.80
2022-10-21T05:48:33.404Z,1.90
2022-10-21T05:49:34.223Z,1.80
2022-10-21T05:50:35.052Z,1.60
2022-10-21T05:51:35.889Z,1.70
2022-10-21T05:52:36.986Z,1.60
2022-10-21T05:53:37.447Z,1.50
2022-10-21T05:54:38.278Z,1.80
2022-10-21T05:55:39.109Z,1.50
2022-10-21T05:56:39.950Z,1.50
2022-10-21T05:57:40.871Z,1.60
2022-10-21T05:58:41.687Z,1.50
2022-10-21T05:59:42.508Z,1.40
2022-10-21T06:00:43.455Z,1.30
2022-10-21T06:01:44.287Z,1.40
2022-10-21T06:02:45.134Z,1.60
2022-10-21T06:03:45.954Z,1.40
2022-10-21T06:04:46.771Z,1.60
2022-10-21T06:05:47.601Z,1.50
2022-10-21T06:06:48.487Z,1.60
2022-10-21T06:07:49.291Z,1.60
2022-10-21T06:08:50.193Z,1.70
2022-10-21T06:09:50.981Z,1.70
2022-10-21T06:10:51.807Z,1.90
2022-10-21T06:11:52.636Z,1.80
2022-10-21T06:12:53.465Z,1.80
2022-10-21T06:13:54.292Z,2.40
2022-10-21T06:14:55.130Z,2.50
2022-10-21T06:15:56.010Z,2.10
2022-10-21T06:16:56.828Z,2.20
2022-10-21T06:17:57.674Z,2.00
2022-10-21T06:18:58.480Z,2.10
2022-10-21T06:19:59.302Z,1.90
2022-10-21T06:21:00.142Z,1.60
2022-10-21T06:22:00.969Z,1.80
2022-10-21T06:23:01.804Z,1.40
2022-10-21T06:24:02.628Z,1.40
2022-10-21T06:25:03.507Z,1.60
2022-10-21T06:26:04.343Z,1.50
2022-10-21T06:27:05.250Z,1.50
2022-10-21T06:28:06.026Z,1.60
2022-10-21T06:29:06.862Z,1.70
2022-10-21T06:30:07.688Z,1.80
2022-10-21T06:31:08.535Z,1.60
2022-10-21T06:32:09.364Z,1.50
2022-10-21T06:33:10.202Z,1.60
2022-10-21T06:34:11.053Z,1.70
2022-10-21T06:35:11.832Z,1.60
2022-10-21T06:36:12.661Z,1.70
2022-10-21T06:37:13.491Z,1.90
2022-10-21T06:38:14.311Z,1.80
2022-10-21T06:39:15.147Z,1.40
2022-10-21T06:40:15.973Z,1.30
2022-10-21T06:41:16.813Z,1.40
2022-10-21T06:42:17.633Z,1.40
2022-10-21T06:43:18.552Z,1.40
2022-10-21T06:44:19.327Z,1.60
2022-10-21T06:45:20.150Z,1.40
2022-10-21T06:46:21.006Z,1.70
2022-10-21T06:47:21.840Z,1.70
2022-10-21T06:48:22.682Z,1.70
2022-10-21T06:49:23.494Z,2.10
2022-10-21T06:50:24.307Z,1.70
2022-10-21T06:51:25.144Z,1.70
2022-10-21T06:53:26.781Z,1.50
2022-10-21T06:54:27.603Z,1.70
2022-10-21T06:55:28.433Z,1.80
2022-10-21T06:56:29.295Z,1.40
2022-10-21T06:57:30.128Z,1.90
2022-10-21T06:58:30.979Z,1.50
2022-10-21T06:59:31.794Z,1.60
2022-10-21T07:00:32.626Z,2.10
2022-10-21T07:01:48.000Z,2.00
2022-10-21T07:02:35.367Z,1.40
2022-10-21T07:03:34.763Z,1.40
2022-10-21T07:04:35.583Z,1.30
2022-10-21T07:05:36.397Z,1.10
2022-10-21T07:06:37.236Z,1.30
2022-10-21T07:07:38.441Z,1.40
2022-10-21T07:08:47.031Z,1.40
2022-10-21T07:09:40.672Z,1.20
2022-10-21T07:10:40.464Z,1.70
2022-10-21T07:11:41.319Z,1.40
2022-10-21T07:12:42.143Z,1.50
2022-10-21T07:13:42.980Z,1.30
2022-10-21T07:14:43.804Z,1.50
2022-10-21T07:15:44.717Z,1.90
2022-10-21T07:16:45.491Z,1.80
2022-10-21T07:17:46.322Z,1.90
2022-10-21T07:18:47.166Z,1.60
2022-10-21T07:19:47.978Z,2.00
2022-10-21T07:20:48.821Z,1.60
2022-10-21T07:21:49.659Z,1.70
2022-10-21T07:22:50.479Z,1.80
2022-10-21T07:23:51.299Z,1.60
2022-10-21T07:24:52.213Z,1.70
2022-10-21T07:25:53.026Z,1.70
2022-10-21T07:26:53.855Z,1.50
2022-10-21T07:27:54.683Z,1.60
2022-10-21T07:28:55.505Z,1.60
2022-10-21T07:29:56.332Z,1.60
2022-10-21T07:30:57.183Z,1.40
2022-10-21T07:31:58.022Z,1.40
2022-10-21T07:32:58.845Z,1.40
2022-10-21T07:33:59.780Z,1.30
2022-10-21T07:35:00.561Z,1.70
2022-10-21T07:36:01.400Z,1.50
2022-10-21T07:37:02.218Z,1.30
2022-10-21T07:38:03.043Z,1.30
2022-10-21T07:39:03.872Z,1.30
2022-10-21T07:40:04.725Z,1.70
2022-10-21T07:41:05.563Z,1.80
2022-10-21T07:42:06.385Z,1.40
2022-10-21T07:43:07.387Z,1.50
2022-10-21T07:44:07.722Z,1.40
2022-10-21T07:45:08.549Z,1.60
2022-10-21T07:46:09.372Z,1.30
2022-10-21T07:47:10.227Z,1.60
2022-10-21T07:48:11.056Z,1.80
2022-10-21T07:49:11.918Z,1.70
2022-10-21T07:50:12.716Z,1.70
2022-10-21T07:51:13.557Z,1.90
2022-10-21T07:53:15.613Z,1.90
2022-10-21T07:54:16.102Z,2.00
2022-10-21T07:55:16.946Z,1.90
2022-10-21T07:56:17.769Z,1.60
2022-10-21T07:57:18.597Z,1.80
2022-10-21T07:58:19.422Z,1.70
2022-10-21T07:59:20.250Z,1.50
2022-10-21T08:00:21.126Z,1.50
2022-10-21T08:01:21.984Z,1.50
2022-10-21T08:02:22.797Z,1.70
2022-10-21T08:03:23.624Z,1.60
2022-10-21T08:04:24.471Z,1.70
2022-10-21T08:05:25.287Z,1.60
2022-10-21T08:06:26.117Z,1.60
2022-10-21T08:07:26.952Z,1.30
2022-10-21T08:08:27.943Z,1.30
2022-10-21T08:09:28.738Z,1.50
2022-10-21T08:10:29.558Z,1.70
2022-10-21T08:11:30.396Z,2.20
2022-10-21T08:12:31.217Z,1.80
2022-10-21T08:13:32.069Z,2.50
2022-10-21T08:14:32.876Z,2.90
2022-10-21T08:15:33.704Z,1.80
2022-10-21T08:16:34.535Z,1.50
2022-10-21T08:17:35.364Z,1.80
2022-10-21T08:18:36.193Z,1.70
2022-10-21T08:19:37.103Z,1.60
2022-10-21T08:20:37.890Z,1.60
2022-10-21T08:21:38.788Z,1.70
2022-10-21T08:22:39.884Z,1.40
2022-10-21T08:23:40.418Z,1.80
2022-10-21T08:24:42.318Z,1.90
2022-10-21T08:25:41.756Z,1.70
2022-10-21T08:26:42.612Z,1.80
2022-10-21T08:27:43.434Z,1.90
2022-10-21T08:28:44.479Z,1.70
2022-10-21T08:29:44.789Z,1.80
2022-10-21T08:30:45.620Z,1.40
2022-10-21T08:31:46.462Z,1.40
2022-10-21T08:32:47.282Z,2.40
2022-10-21T08:33:48.117Z,1.40
2022-10-21T08:34:48.965Z,1.60
2022-10-21T08:35:49.780Z,1.70
2022-10-21T08:36:50.604Z,1.50
2022-10-21T08:37:51.436Z,1.60
2022-10-21T08:38:52.261Z,1.50
2022-10-21T08:39:53.088Z,1.70
2022-10-21T08:40:55.718Z,1.60
2022-10-21T08:41:54.680Z,1.50
2022-10-21T08:42:55.501Z,1.60
2022-10-21T08:43:56.330Z,1.60
2022-10-21T08:44:57.157Z,1.70
2022-10-21T08:45:57.994Z,1.50
2022-10-21T08:46:58.900Z,1.70
2022-10-21T08:47:59.702Z,1.60
2022-10-21T08:49:00.527Z,1.60
2022-10-21T08:50:01.374Z,1.60
2022-10-21T08:51:02.196Z,1.70
2022-10-21T08:52:03.033Z,1.60
2022-10-21T08:53:03.855Z,1.60
2022-10-21T08:54:04.707Z,1.50
2022-10-21T08:55:05.513Z,1.50
2022-10-21T08:56:06.425Z,1.50
2022-10-21T08:57:07.220Z,1.60
2022-10-21T08:58:10.573Z,1.80
2022-10-21T08:59:08.923Z,1.50
2022-10-21T09:00:09.739Z,2.00
2022-10-21T09:01:10.579Z,1.60
2022-10-21T09:02:11.397Z,2.40
2022-10-21T09:03:12.335Z,1.60
2022-10-21T09:04:13.132Z,1.90
2022-10-21T09:05:14.033Z,1.90
2022-10-21T09:06:14.827Z,1.80
2022-10-21T09:07:15.657Z,1.90
2022-10-21T09:08:16.483Z,1.70
2022-10-21T09:09:17.406Z,1.70
2022-10-21T09:10:18.244Z,1.70
2022-10-21T09:11:19.048Z,1.80
2022-10-21T09:12:19.864Z,2.10
2022-10-21T09:13:20.694Z,1.50
2022-10-21T09:14:21.563Z,1.70
2022-10-21T09:15:22.359Z,1.50
2022-10-21T09:16:23.198Z,1.50
2022-10-21T09:17:24.050Z,2.00
2022-10-21T09:18:24.854Z,2.50
2022-10-21T09:19:25.685Z,1.50
2022-10-21T09:20:26.538Z,1.50
2022-10-21T09:21:27.342Z,1.70
2022-10-21T09:22:35.401Z,1.70
2022-10-21T09:23:29.985Z,1.70
2022-10-21T09:24:29.855Z,1.90
2022-10-21T09:25:30.678Z,1.60
2022-10-21T09:26:31.512Z,1.60
2022-10-21T09:27:51.413Z,1.80
2022-10-21T09:28:34.057Z,1.50
2022-10-21T09:29:33.896Z,1.90
2022-10-21T09:30:34.712Z,1.80
2022-10-21T09:31:35.554Z,1.30
2022-10-21T09:32:36.404Z,1.40
2022-10-21T09:33:37.228Z,1.70
2022-10-21T09:34:38.056Z,1.70
2022-10-21T09:35:38.913Z,1.50
2022-10-21T09:36:39.728Z,1.40
2022-10-21T09:37:40.955Z,1.90
2022-10-21T09:38:41.536Z,1.60
2022-10-21T09:39:42.365Z,1.50
2022-10-21T09:40:43.198Z,1.60
2022-10-21T09:41:44.058Z,1.60
2022-10-21T09:42:48.531Z,1.80
2022-10-21T09:43:45.454Z,1.40
2022-10-21T09:44:46.274Z,2.10
2022-10-21T09:45:47.102Z,2.10
2022-10-21T09:46:47.944Z,1.70
2022-10-21T09:47:48.805Z,1.30
2022-10-21T09:50:07.859Z,1.70
2022-10-21T09:50:52.057Z,1.70
2022-10-21T09:51:51.873Z,1.50
2022-10-21T09:52:52.705Z,1.40
2022-10-21T09:53:54.405Z,1.40
2022-10-21T09:54:54.263Z,1.30
2022-10-21T09:55:55.085Z,1.80
2022-10-21T09:56:55.925Z,1.80
2022-10-21T09:57:56.747Z,1.60
2022-10-21T09:59:00.601Z,1.70
2022-10-21T09:59:58.326Z,1.60
2022-10-21T10:00:59.169Z,1.50
2022-10-21T10:02:00.021Z,1.50
2022-10-21T10:03:00.877Z,1.50
2022-10-21T10:04:01.682Z,1.70
2022-10-21T10:05:02.511Z,1.50
2022-10-21T10:06:03.365Z,1.30
2022-10-21T10:07:04.170Z,1.60
2022-10-21T10:08:05.022Z,1.60
2022-10-21T10:09:05.846Z,1.50
2022-10-21T10:10:06.665Z,1.60
2022-10-21T10:11:07.500Z,1.50
2022-10-21T10:12:08.330Z,2.10
2022-10-21T10:13:09.156Z,1.50
2022-10-21T10:14:10.006Z,1.50
2022-10-21T10:15:10.816Z,1.30
2022-10-21T10:16:11.679Z,1.60
2022-10-21T10:17:12.504Z,1.50
2022-10-21T10:18:13.336Z,1.90
2022-10-21T10:19:14.163Z,1.60
2022-10-21T10:20:15.007Z,1.40
2022-10-21T10:21:15.844Z,1.60
2022-10-21T10:22:16.655Z,1.50
2022-10-21T10:23:17.482Z,1.60
2022-10-21T10:24:18.309Z,1.40
2022-10-21T10:25:19.147Z,1.40
2022-10-21T10:26:19.979Z,1.10
2022-10-21T10:27:20.827Z,1.20
2022-10-21T10:28:21.635Z,1.10
2022-10-21T10:29:22.465Z,1.60
2022-10-21T10:30:23.284Z,2.10
2022-10-21T10:31:24.129Z,1.60
2022-10-21T10:32:24.943Z,1.50
2022-10-21T10:33:25.800Z,1.30
2022-10-21T10:34:26.602Z,1.40
2022-10-21T10:35:27.437Z,1.20
2022-10-21T10:36:28.380Z,1.20
2022-10-21T10:37:29.174Z,1.50
2022-10-21T10:38:29.972Z,1.30
2022-10-21T10:39:30.809Z,1.50
2022-10-21T10:40:31.602Z,1.30
2022-10-21T10:41:32.443Z,1.20
2022-10-21T10:42:33.281Z,1.30
2022-10-21T10:43:34.105Z,1.70
2022-10-21T10:44:34.932Z,1.40
2022-10-21T10:45:35.790Z,1.10
2022-10-21T10:46:36.717Z,1.30
2022-10-21T10:47:37.930Z,1.30
2022-10-21T10:48:38.398Z,1.50
2022-10-21T10:49:39.229Z,1.50
2022-10-21T10:50:40.045Z,1.30
2022-10-21T10:51:40.998Z,1.40
2022-10-21T10:52:41.803Z,1.30
2022-10-21T10:53:42.584Z,1.30
2022-10-21T10:54:43.411Z,1.10
2022-10-21T10:55:44.363Z,1.10
2022-10-21T10:56:45.181Z,1.30
2022-10-21T10:57:58.556Z,1.20
2022-10-21T10:58:47.773Z,1.70
2022-10-21T10:59:47.554Z,1.20
2022-10-21T11:00:48.469Z,1.80
2022-10-21T11:01:49.252Z,1.40
2022-10-21T11:02:50.070Z,1.50
2022-10-21T11:03:50.934Z,1.70
2022-10-21T11:04:51.802Z,1.40
2022-10-21T11:05:52.639Z,2.00
2022-10-21T11:06:53.544Z,1.90
2022-10-21T11:07:54.298Z,1.60
2022-10-21T11:08:55.137Z,1.40
2022-10-21T11:09:55.948Z,1.20
2022-10-21T11:10:56.793Z,2.30
2022-10-21T11:11:57.616Z,1.30
2022-10-21T11:12:58.472Z,1.60
2022-10-21T11:15:00.035Z,1.50
2022-10-21T11:16:00.873Z,1.40
2022-10-21T11:17:01.693Z,1.30
2022-10-21T11:18:17.040Z,1.40
2022-10-21T11:19:04.322Z,1.30
2022-10-21T11:20:04.074Z,1.60
2022-10-21T11:21:04.915Z,2.30
2022-10-21T11:22:06.240Z,1.20
2022-10-21T11:24:07.329Z,1.40
2022-10-21T11:25:08.182Z,1.30
2022-10-21T11:26:09.009Z,1.70
2022-10-21T11:27:09.837Z,1.40
2022-10-21T11:28:10.667Z,1.40
2022-10-21T11:29:11.496Z,1.30
2022-10-21T11:30:12.326Z,1.40
2022-10-21T11:31:13.228Z,1.30
2022-10-21T11:32:13.997Z,1.40
2022-10-21T11:33:14.828Z,1.70
2022-10-21T11:34:15.656Z,1.60
2022-10-21T11:35:16.486Z,1.40
2022-10-21T11:36:17.318Z,1.30
2022-10-21T11:37:18.266Z,1.40
2022-10-21T11:38:19.010Z,1.30
2022-10-21T11:39:21.572Z,1.50
2022-10-21T11:40:20.479Z,1.50
2022-10-21T11:41:23.027Z,1.50
2022-10-21T11:42:22.015Z,1.20
2022-10-21T11:43:22.881Z,1.20
2022-10-21T11:44:28.520Z,1.20
2022-10-21T11:45:25.405Z,1.20
2022-10-21T11:46:25.229Z,1.10
2022-10-21T11:47:26.057Z,1.20
2022-10-21T11:48:26.882Z,1.30
2022-10-21T11:49:27.754Z,1.30
2022-10-21T11:50:28.550Z,1.50
2022-10-21T11:51:29.392Z,1.60
2022-10-21T11:52:30.325Z,2.30
2022-10-21T11:53:31.085Z,2.00
2022-10-21T11:54:31.911Z,1.90
2022-10-21T11:55:32.784Z,1.50
2022-10-21T11:56:33.598Z,2.00
2022-10-21T11:57:34.426Z,3.20
2022-10-21T11:58:35.247Z,5.00
2022-10-21T11:59:36.076Z,4.10
2022-10-21T12:00:36.894Z,18.80
2022-10-21T12:01:37.797Z,5.40
2022-10-21T12:02:38.929Z,3.10
2022-10-21T12:03:39.367Z,2.80
2022-10-21T12:04:40.199Z,2.60
2022-10-21T12:05:41.026Z,2.00
2022-10-21T12:06:41.863Z,1.80
2022-10-21T12:07:42.803Z,1.40
2022-10-21T12:08:45.298Z,1.40
2022-10-21T12:09:44.457Z,1.40
2022-10-21T12:10:45.281Z,1.50
2022-10-21T12:11:46.120Z,1.80
2022-10-21T12:12:46.949Z,1.40
2022-10-21T12:13:47.780Z,1.60
2022-10-21T12:14:48.607Z,1.30
2022-10-21T12:15:49.439Z,1.40
2022-10-21T12:16:50.267Z,1.40
2022-10-21T12:17:51.125Z,1.30
2022-10-21T12:18:51.932Z,1.40
2022-10-21T12:19:52.765Z,2.30
2022-10-21T12:20:53.597Z,1.70
2022-10-21T12:21:54.430Z,1.70
2022-10-21T12:22:55.374Z,1.60
2022-10-21T12:23:56.130Z,1.50
2022-10-21T12:24:56.947Z,1.90
2022-10-21T12:25:57.837Z,2.00
2022-10-21T12:26:58.607Z,1.60
2022-10-21T12:27:59.443Z,1.40
2022-10-21T12:29:00.262Z,1.40
2022-10-21T12:30:01.086Z,1.80
2022-10-21T12:31:01.933Z,1.50
2022-10-21T12:32:02.762Z,1.80
2022-10-21T12:33:03.584Z,1.50
2022-10-21T12:34:04.452Z,1.60
2022-10-21T12:35:05.242Z,1.40
2022-10-21T12:36:06.078Z,1.30
2022-10-21T12:37:06.902Z,1.40
2022-10-21T12:38:07.841Z,1.30
2022-10-21T12:39:08.595Z,1.40
2022-10-21T12:40:09.419Z,1.50
2022-10-21T12:41:10.286Z,1.40
2022-10-21T12:42:11.201Z,1.60
2022-10-21T12:43:11.975Z,1.30
2022-10-21T12:44:12.803Z,1.50
2022-10-21T12:45:13.625Z,1.30
2022-10-21T12:46:14.462Z,1.10
2022-10-21T12:47:15.296Z,1.30
2022-10-21T12:48:16.154Z,1.60
2022-10-21T12:49:16.962Z,1.60
2022-10-21T12:50:17.790Z,1.50
2022-10-21T12:51:18.624Z,1.30
2022-10-21T12:52:19.455Z,1.20
2022-10-21T12:53:20.302Z,1.40
2022-10-21T12:54:24.154Z,1.30
2022-10-21T12:55:22.825Z,1.50
2022-10-21T12:56:22.729Z,1.50
2022-10-21T12:57:23.504Z,1.40
2022-10-21T12:58:24.333Z,1.30
2022-10-21T12:59:25.151Z,1.80
2022-10-21T13:00:25.987Z,2.40
2022-10-21T13:01:26.850Z,1.80
2022-10-21T13:02:27.655Z,2.10
2022-10-21T13:03:28.485Z,6.00
2022-10-21T13:04:29.362Z,5.70
2022-10-21T13:05:30.148Z,4.00
2022-10-21T13:06:30.986Z,1.70
2022-10-21T13:07:31.818Z,1.50
2022-10-21T13:08:32.719Z,1.50
2022-10-21T13:09:33.522Z,1.70
2022-10-21T13:10:34.429Z,1.70
2022-10-21T13:11:35.240Z,1.40
2022-10-21T13:12:36.265Z,1.30
2022-10-21T13:13:36.688Z,1.60
2022-10-21T13:14:37.522Z,1.40
2022-10-21T13:15:38.337Z,1.30
2022-10-21T13:16:39.180Z,1.20
2022-10-21T13:17:39.997Z,1.80
2022-10-21T13:18:40.828Z,1.50
2022-10-21T13:19:41.716Z,1.20
2022-10-21T13:20:42.484Z,1.30
2022-10-21T13:21:43.325Z,1.60
2022-10-21T13:22:44.156Z,1.60
2022-10-21T13:23:45.004Z,1.70
2022-10-21T13:24:45.810Z,1.80
2022-10-21T13:25:46.641Z,1.40
2022-10-21T13:26:47.480Z,1.30
2022-10-21T13:27:48.327Z,1.40
2022-10-21T13:28:49.147Z,1.50
2022-10-21T13:29:49.982Z,1.30
2022-10-21T13:30:50.813Z,1.40
2022-10-21T13:31:51.640Z,1.60
2022-10-21T13:32:52.479Z,1.40
2022-10-21T13:33:53.299Z,1.40
2022-10-21T13:34:53.790Z,1.20
2022-10-21T13:35:54.700Z,1.40
2022-10-21T13:36:55.579Z,1.60